sensor_id;sensor_type;location;lat;lon;timestamp;P1;durP1;ratioP1;P2;durP2;ratioP2
13202;SDS011;6666;51.626;7.530;2022-08-19T00:01:52;7.18;;;4.80;;
13202;SDS011;6666;51.626;7.530;2022-08-19T00:04:22;6.45;;;4.75;;
13202;SDS011;6666;51.626;7.530;2022-08-19T00:06:52;6.97;;;4.95;;
13202;SDS011;6666;51.626;7.530;2022-08-19T00:09:21;7.07;;;5.20;;
13202;SDS011;6666;51.626;7.530;2022-08-19T00:11:52;5.75;;;4.63;;
13202;SDS011;6666;51.626;7.530;2022-08-19T00:14:23;8.48;;;5.00;;
13202;SDS011;6666;51.626;7.530;2022-08-19T00:16:52;6.50;;;4.70;;
13202;SDS011;6666;51.626;7.530;2022-08-19T00:19:22;8.67;;;5.20;;
13202;SDS011;6666;51.626;7.530;2022-08-19T00:21:50;5.65;;;4.57;;
13202;SDS011;6666;51.626;7.530;2022-08-19T00:24:19;6.70;;;5.10;;
13202;SDS011;6666;51.626;7.530;2022-08-19T00:26:48;7.15;;;5.05;;
13202;SDS011;6666;51.626;7.530;2022-08-19T00:29:18;7.32;;;5.30;;
13202;SDS011;6666;51.626;7.530;2022-08-19T00:31:48;7.03;;;5.00;;
13202;SDS011;6666;51.626;7.530;2022-08-19T00:34:19;6.30;;;5.28;;
13202;SDS011;6666;51.626;7.530;2022-08-19T00:36:48;6.60;;;5.30;;
13202;SDS011;6666;51.626;7.530;2022-08-19T00:39:16;12.05;;;6.00;;
13202;SDS011;6666;51.626;7.530;2022-08-19T00:41:46;7.40;;;4.70;;
13202;SDS011;6666;51.626;7.530;2022-08-19T00:44:18;7.68;;;5.40;;
13202;SDS011;6666;51.626;7.530;2022-08-19T00:46:53;7.72;;;5.15;;
13202;SDS011;6666;51.626;7.530;2022-08-19T00:49:25;6.53;;;4.75;;
13202;SDS011;6666;51.626;7.530;2022-08-19T00:51:57;9.50;;;5.20;;
13202;SDS011;6666;51.626;7.530;2022-08-19T00:54:29;6.60;;;4.70;;
13202;SDS011;6666;51.626;7.530;2022-08-19T00:56:59;7.80;;;4.93;;
13202;SDS011;6666;51.626;7.530;2022-08-19T00:59:30;7.68;;;4.90;;
13202;SDS011;6666;51.626;7.530;2022-08-19T01:02:21;6.10;;;4.30;;
13202;SDS011;6666;51.626;7.530;2022-08-19T01:04:50;5.55;;;4.60;;
13202;SDS011;6666;51.626;7.530;2022-08-19T01:07:18;7.22;;;4.50;;
13202;SDS011;6666;51.626;7.530;2022-08-19T01:09:46;5.57;;;4.53;;
13202;SDS011;6666;51.626;7.530;2022-08-19T01:12:15;6.20;;;4.50;;
13202;SDS011;6666;51.626;7.530;2022-08-19T01:14:47;7.50;;;4.90;;
13202;SDS011;6666;51.626;7.530;2022-08-19T01:17:16;6.57;;;5.20;;
13202;SDS011;6666;51.626;7.530;2022-08-19T01:19:45;7.88;;;5.50;;
13202;SDS011;6666;51.626;7.530;2022-08-19T01:22:16;7.20;;;4.97;;
13202;SDS011;6666;51.626;7.530;2022-08-19T01:24:59;5.80;;;5.20;;
13202;SDS011;6666;51.626;7.530;2022-08-19T01:27:41;8.70;;;4.95;;
13202;SDS011;6666;51.626;7.530;2022-08-19T01:30:12;6.05;;;4.90;;
13202;SDS011;6666;51.626;7.530;2022-08-19T01:32:43;5.97;;;5.00;;
13202;SDS011;6666;51.626;7.530;2022-08-19T01:35:12;7.60;;;4.72;;
13202;SDS011;6666;51.626;7.530;2022-08-19T01:37:45;7.73;;;5.20;;
13202;SDS011;6666;51.626;7.530;2022-08-19T01:40:18;6.35;;;5.05;;
13202;SDS011;6666;51.626;7.530;2022-08-19T01:42:48;7.27;;;5.10;;
13202;SDS011;6666;51.626;7.530;2022-08-19T01:45:16;9.17;;;5.10;;
13202;SDS011;6666;51.626;7.530;2022-08-19T01:47:46;10.50;;;5.80;;
13202;SDS011;6666;51.626;7.530;2022-08-19T01:50:27;7.20;;;5.28;;
13202;SDS011;6666;51.626;7.530;2022-08-19T01:52:56;6.97;;;5.40;;
13202;SDS011;6666;51.626;7.530;2022-08-19T01:55:36;6.90;;;5.13;;
13202;SDS011;6666;51.626;7.530;2022-08-19T01:58:08;11.20;;;5.68;;
13202;SDS011;6666;51.626;7.530;2022-08-19T02:00:39;8.38;;;5.50;;
13202;SDS011;6666;51.626;7.530;2022-08-19T02:03:08;7.28;;;4.90;;
13202;SDS011;6666;51.626;7.530;2022-08-19T02:05:38;10.50;;;6.07;;
13202;SDS011;6666;51.626;7.530;2022-08-19T02:08:07;8.50;;;5.85;;
13202;SDS011;6666;51.626;7.530;2022-08-19T02:10:39;8.80;;;6.10;;
13202;SDS011;6666;51.626;7.530;2022-08-19T02:13:09;7.32;;;5.60;;
13202;SDS011;6666;51.626;7.530;2022-08-19T02:15:38;10.03;;;6.03;;
13202;SDS011;6666;51.626;7.530;2022-08-19T02:18:06;10.80;;;6.07;;
13202;SDS011;6666;51.626;7.530;2022-08-19T02:20:35;9.07;;;6.00;;
13202;SDS011;6666;51.626;7.530;2022-08-19T02:23:04;6.82;;;5.30;;
13202;SDS011;6666;51.626;7.530;2022-08-19T02:25:43;6.65;;;5.03;;
13202;SDS011;6666;51.626;7.530;2022-08-19T02:28:12;6.95;;;5.43;;
13202;SDS011;6666;51.626;7.530;2022-08-19T02:30:44;8.90;;;6.03;;
13202;SDS011;6666;51.626;7.530;2022-08-19T02:33:15;7.85;;;5.65;;
13202;SDS011;6666;51.626;7.530;2022-08-19T02:35:44;8.95;;;6.00;;
13202;SDS011;6666;51.626;7.530;2022-08-19T02:38:13;6.93;;;5.50;;
13202;SDS011;6666;51.626;7.530;2022-08-19T02:40:55;7.53;;;5.90;;
13202;SDS011;6666;51.626;7.530;2022-08-19T02:43:26;10.60;;;5.80;;
13202;SDS011;6666;51.626;7.530;2022-08-19T02:46:00;8.57;;;5.55;;
13202;SDS011;6666;51.626;7.530;2022-08-19T02:48:29;6.55;;;5.15;;
13202;SDS011;6666;51.626;7.530;2022-08-19T02:50:59;7.40;;;5.40;;
13202;SDS011;6666;51.626;7.530;2022-08-19T02:53:28;10.10;;;6.03;;
13202;SDS011;6666;51.626;7.530;2022-08-19T02:55:57;8.70;;;5.80;;
13202;SDS011;6666;51.626;7.530;2022-08-19T02:58:26;7.82;;;5.30;;
13202;SDS011;6666;51.626;7.530;2022-08-19T03:00:55;9.60;;;5.47;;
13202;SDS011;6666;51.626;7.530;2022-08-19T03:03:24;7.72;;;4.95;;
13202;SDS011;6666;51.626;7.530;2022-08-19T03:06:02;6.10;;;4.60;;
13202;SDS011;6666;51.626;7.530;2022-08-19T03:08:36;9.07;;;5.60;;
13202;SDS011;6666;51.626;7.530;2022-08-19T03:11:06;11.48;;;5.70;;
13202;SDS011;6666;51.626;7.530;2022-08-19T03:13:39;9.15;;;6.30;;
13202;SDS011;6666;51.626;7.530;2022-08-19T03:16:09;7.30;;;5.50;;
13202;SDS011;6666;51.626;7.530;2022-08-19T03:18:38;8.73;;;5.68;;
13202;SDS011;6666;51.626;7.530;2022-08-19T03:21:07;8.75;;;5.95;;
13202;SDS011;6666;51.626;7.530;2022-08-19T03:23:37;9.13;;;5.30;;
13202;SDS011;6666;51.626;7.530;2022-08-19T03:26:07;8.43;;;5.40;;
13202;SDS011;6666;51.626;7.530;2022-08-19T03:28:41;8.73;;;6.00;;
13202;SDS011;6666;51.626;7.530;2022-08-19T03:31:19;8.10;;;5.60;;
13202;SDS011;6666;51.626;7.530;2022-08-19T03:34:10;7.38;;;5.63;;
13202;SDS011;6666;51.626;7.530;2022-08-19T03:36:39;11.18;;;7.07;;
13202;SDS011;6666;51.626;7.530;2022-08-19T03:39:09;10.52;;;6.30;;
13202;SDS011;6666;51.626;7.530;2022-08-19T03:41:39;13.02;;;7.20;;
13202;SDS011;6666;51.626;7.530;2022-08-19T03:44:13;11.63;;;7.00;;
13202;SDS011;6666;51.626;7.530;2022-08-19T03:46:45;12.02;;;6.40;;
13202;SDS011;6666;51.626;7.530;2022-08-19T03:49:14;9.48;;;6.43;;
13202;SDS011;6666;51.626;7.530;2022-08-19T03:51:45;12.27;;;7.43;;
13202;SDS011;6666;51.626;7.530;2022-08-19T03:54:16;9.35;;;6.50;;
13202;SDS011;6666;51.626;7.530;2022-08-19T03:56:49;9.73;;;6.90;;
13202;SDS011;6666;51.626;7.530;2022-08-19T03:59:19;11.40;;;7.32;;
13202;SDS011;6666;51.626;7.530;2022-08-19T04:01:51;11.35;;;7.15;;
13202;SDS011;6666;51.626;7.530;2022-08-19T04:04:20;15.23;;;6.60;;
13202;SDS011;6666;51.626;7.530;2022-08-19T04:06:49;9.48;;;6.32;;
13202;SDS011;6666;51.626;7.530;2022-08-19T04:09:18;11.52;;;6.72;;
13202;SDS011;6666;51.626;7.530;2022-08-19T04:11:49;10.57;;;6.95;;
13202;SDS011;6666;51.626;7.530;2022-08-19T04:14:21;13.90;;;6.80;;
13202;SDS011;6666;51.626;7.530;2022-08-19T04:16:50;9.95;;;6.70;;
13202;SDS011;6666;51.626;7.530;2022-08-19T04:19:19;9.38;;;6.80;;
13202;SDS011;6666;51.626;7.530;2022-08-19T04:21:49;12.73;;;7.53;;
13202;SDS011;6666;51.626;7.530;2022-08-19T04:24:19;13.45;;;6.97;;
13202;SDS011;6666;51.626;7.530;2022-08-19T04:26:49;13.18;;;7.63;;
13202;SDS011;6666;51.626;7.530;2022-08-19T04:29:19;12.32;;;7.80;;
13202;SDS011;6666;51.626;7.530;2022-08-19T04:31:51;11.95;;;7.53;;
13202;SDS011;6666;51.626;7.530;2022-08-19T04:34:22;11.07;;;7.05;;
13202;SDS011;6666;51.626;7.530;2022-08-19T04:36:53;11.30;;;7.80;;
13202;SDS011;6666;51.626;7.530;2022-08-19T04:39:23;15.00;;;7.60;;
13202;SDS011;6666;51.626;7.530;2022-08-19T04:42:15;13.20;;;7.60;;
13202;SDS011;6666;51.626;7.530;2022-08-19T04:45:02;11.38;;;7.10;;
13202;SDS011;6666;51.626;7.530;2022-08-19T04:47:36;12.80;;;7.50;;
13202;SDS011;6666;51.626;7.530;2022-08-19T04:50:23;10.40;;;7.90;;
13202;SDS011;6666;51.626;7.530;2022-08-19T04:52:51;11.10;;;7.80;;
13202;SDS011;6666;51.626;7.530;2022-08-19T04:55:21;12.07;;;7.73;;
13202;SDS011;6666;51.626;7.530;2022-08-19T04:57:53;13.55;;;9.00;;
13202;SDS011;6666;51.626;7.530;2022-08-19T05:00:22;9.88;;;7.00;;
13202;SDS011;6666;51.626;7.530;2022-08-19T05:02:50;11.75;;;8.30;;
13202;SDS011;6666;51.626;7.530;2022-08-19T05:05:19;11.40;;;7.65;;
13202;SDS011;6666;51.626;7.530;2022-08-19T05:07:47;13.63;;;7.75;;
13202;SDS011;6666;51.626;7.530;2022-08-19T05:10:16;20.17;;;8.35;;
13202;SDS011;6666;51.626;7.530;2022-08-19T05:12:45;13.10;;;8.00;;
13202;SDS011;6666;51.626;7.530;2022-08-19T05:15:15;11.87;;;7.40;;
13202;SDS011;6666;51.626;7.530;2022-08-19T05:17:45;14.55;;;7.80;;
13202;SDS011;6666;51.626;7.530;2022-08-19T05:20:27;10.10;;;6.93;;
13202;SDS011;6666;51.626;7.530;2022-08-19T05:23:13;10.90;;;6.30;;
13202;SDS011;6666;51.626;7.530;2022-08-19T05:25:47;12.23;;;6.45;;
13202;SDS011;6666;51.626;7.530;2022-08-19T05:28:16;12.23;;;6.10;;
13202;SDS011;6666;51.626;7.530;2022-08-19T05:30:46;9.55;;;6.60;;
13202;SDS011;6666;51.626;7.530;2022-08-19T05:33:17;9.70;;;6.80;;
13202;SDS011;6666;51.626;7.530;2022-08-19T05:35:45;9.48;;;6.32;;
13202;SDS011;6666;51.626;7.530;2022-08-19T05:38:15;9.97;;;6.77;;
13202;SDS011;6666;51.626;7.530;2022-08-19T05:40:44;12.15;;;7.20;;
13202;SDS011;6666;51.626;7.530;2022-08-19T05:43:13;10.15;;;7.63;;
13202;SDS011;6666;51.626;7.530;2022-08-19T05:45:43;14.68;;;7.70;;
13202;SDS011;6666;51.626;7.530;2022-08-19T05:48:13;15.00;;;8.10;;
13202;SDS011;6666;51.626;7.530;2022-08-19T05:50:43;10.77;;;7.25;;
13202;SDS011;6666;51.626;7.530;2022-08-19T05:53:12;16.42;;;9.00;;
13202;SDS011;6666;51.626;7.530;2022-08-19T05:55:42;13.63;;;8.00;;
13202;SDS011;6666;51.626;7.530;2022-08-19T05:58:11;10.88;;;8.35;;
13202;SDS011;6666;51.626;7.530;2022-08-19T06:00:39;10.60;;;8.20;;
13202;SDS011;6666;51.626;7.530;2022-08-19T06:03:10;13.00;;;8.38;;
13202;SDS011;6666;51.626;7.530;2022-08-19T06:05:40;12.05;;;8.45;;
13202;SDS011;6666;51.626;7.530;2022-08-19T06:08:18;12.00;;;8.32;;
13202;SDS011;6666;51.626;7.530;2022-08-19T06:11:11;13.25;;;8.30;;
13202;SDS011;6666;51.626;7.530;2022-08-19T06:13:41;14.60;;;8.85;;
13202;SDS011;6666;51.626;7.530;2022-08-19T06:16:11;12.80;;;8.20;;
13202;SDS011;6666;51.626;7.530;2022-08-19T06:18:39;13.23;;;8.50;;
13202;SDS011;6666;51.626;7.530;2022-08-19T06:21:12;14.95;;;8.90;;
13202;SDS011;6666;51.626;7.530;2022-08-19T06:23:40;14.02;;;9.23;;
13202;SDS011;6666;51.626;7.530;2022-08-19T06:26:11;16.90;;;10.48;;
13202;SDS011;6666;51.626;7.530;2022-08-19T06:28:40;18.43;;;10.10;;
13202;SDS011;6666;51.626;7.530;2022-08-19T06:31:13;16.60;;;9.45;;
13202;SDS011;6666;51.626;7.530;2022-08-19T06:33:42;14.48;;;9.80;;
13202;SDS011;6666;51.626;7.530;2022-08-19T06:36:17;15.60;;;9.30;;
13202;SDS011;6666;51.626;7.530;2022-08-19T06:38:51;15.75;;;9.70;;
13202;SDS011;6666;51.626;7.530;2022-08-19T06:41:19;16.35;;;10.10;;
13202;SDS011;6666;51.626;7.530;2022-08-19T06:43:48;16.08;;;9.65;;
13202;SDS011;6666;51.626;7.530;2022-08-19T06:46:19;17.30;;;10.18;;
13202;SDS011;6666;51.626;7.530;2022-08-19T06:48:48;20.20;;;10.50;;
13202;SDS011;6666;51.626;7.530;2022-08-19T06:51:21;14.90;;;10.73;;
13202;SDS011;6666;51.626;7.530;2022-08-19T06:53:51;17.45;;;11.68;;
13202;SDS011;6666;51.626;7.530;2022-08-19T06:56:22;18.77;;;12.30;;
13202;SDS011;6666;51.626;7.530;2022-08-19T06:58:57;22.23;;;12.70;;
13202;SDS011;6666;51.626;7.530;2022-08-19T07:01:26;25.50;;;12.93;;
13202;SDS011;6666;51.626;7.530;2022-08-19T07:03:54;23.58;;;12.70;;
13202;SDS011;6666;51.626;7.530;2022-08-19T07:06:25;23.50;;;13.55;;
13202;SDS011;6666;51.626;7.530;2022-08-19T07:09:10;22.03;;;13.40;;
13202;SDS011;6666;51.626;7.530;2022-08-19T07:11:44;25.88;;;15.27;;
13202;SDS011;6666;51.626;7.530;2022-08-19T07:14:13;80.32;;;44.05;;
13202;SDS011;6666;51.626;7.530;2022-08-19T07:16:45;26.70;;;17.23;;
13202;SDS011;6666;51.626;7.530;2022-08-19T07:19:16;27.10;;;16.13;;
13202;SDS011;6666;51.626;7.530;2022-08-19T07:21:47;31.40;;;16.30;;
13202;SDS011;6666;51.626;7.530;2022-08-19T07:24:19;29.88;;;17.55;;
13202;SDS011;6666;51.626;7.530;2022-08-19T07:26:50;42.30;;;16.58;;
13202;SDS011;6666;51.626;7.530;2022-08-19T07:29:20;29.80;;;16.75;;
13202;SDS011;6666;51.626;7.530;2022-08-19T07:31:54;26.50;;;16.35;;
13202;SDS011;6666;51.626;7.530;2022-08-19T07:34:26;26.60;;;15.60;;
13202;SDS011;6666;51.626;7.530;2022-08-19T07:36:57;26.83;;;15.48;;
13202;SDS011;6666;51.626;7.530;2022-08-19T07:39:28;25.38;;;15.38;;
13202;SDS011;6666;51.626;7.530;2022-08-19T07:41:59;27.90;;;15.50;;
13202;SDS011;6666;51.626;7.530;2022-08-19T07:44:30;26.70;;;13.73;;
13202;SDS011;6666;51.626;7.530;2022-08-19T07:47:02;22.53;;;14.47;;
13202;SDS011;6666;51.626;7.530;2022-08-19T07:49:31;23.87;;;14.07;;
13202;SDS011;6666;51.626;7.530;2022-08-19T07:52:04;22.87;;;14.00;;
13202;SDS011;6666;51.626;7.530;2022-08-19T07:54:36;20.83;;;13.75;;
13202;SDS011;6666;51.626;7.530;2022-08-19T07:57:06;25.13;;;13.90;;
13202;SDS011;6666;51.626;7.530;2022-08-19T07:59:35;22.53;;;13.10;;
13202;SDS011;6666;51.626;7.530;2022-08-19T08:02:05;23.70;;;13.80;;
13202;SDS011;6666;51.626;7.530;2022-08-19T08:04:34;21.30;;;13.50;;
13202;SDS011;6666;51.626;7.530;2022-08-19T08:07:17;30.00;;;13.45;;
13202;SDS011;6666;51.626;7.530;2022-08-19T08:10:03;30.00;;;13.63;;
13202;SDS011;6666;51.626;7.530;2022-08-19T08:12:47;24.95;;;14.43;;
13202;SDS011;6666;51.626;7.530;2022-08-19T08:15:35;23.75;;;14.00;;
13202;SDS011;6666;51.626;7.530;2022-08-19T08:18:08;25.63;;;12.60;;
13202;SDS011;6666;51.626;7.530;2022-08-19T08:20:37;20.75;;;12.05;;
13202;SDS011;6666;51.626;7.530;2022-08-19T08:23:07;19.48;;;11.13;;
13202;SDS011;6666;51.626;7.530;2022-08-19T08:25:54;18.93;;;11.30;;
13202;SDS011;6666;51.626;7.530;2022-08-19T08:28:24;21.35;;;12.00;;
13202;SDS011;6666;51.626;7.530;2022-08-19T08:30:55;19.27;;;11.00;;
13202;SDS011;6666;51.626;7.530;2022-08-19T08:33:27;19.23;;;11.07;;
13202;SDS011;6666;51.626;7.530;2022-08-19T08:36:00;21.60;;;11.90;;
13202;SDS011;6666;51.626;7.530;2022-08-19T08:38:31;18.40;;;11.10;;
13202;SDS011;6666;51.626;7.530;2022-08-19T08:41:07;16.80;;;11.30;;
13202;SDS011;6666;51.626;7.530;2022-08-19T08:43:46;19.00;;;11.65;;
13202;SDS011;6666;51.626;7.530;2022-08-19T08:46:20;20.92;;;12.00;;
13202;SDS011;6666;51.626;7.530;2022-08-19T08:48:59;20.05;;;12.55;;
13202;SDS011;6666;51.626;7.530;2022-08-19T08:51:33;19.88;;;12.65;;
13202;SDS011;6666;51.626;7.530;2022-08-19T08:54:28;15.52;;;10.05;;
13202;SDS011;6666;51.626;7.530;2022-08-19T08:57:02;25.48;;;14.40;;
13202;SDS011;6666;51.626;7.530;2022-08-19T08:59:33;30.10;;;18.75;;
13202;SDS011;6666;51.626;7.530;2022-08-19T09:02:04;18.48;;;12.02;;
13202;SDS011;6666;51.626;7.530;2022-08-19T09:04:33;15.50;;;10.40;;
13202;SDS011;6666;51.626;7.530;2022-08-19T09:07:08;13.57;;;8.90;;
13202;SDS011;6666;51.626;7.530;2022-08-19T09:10:06;13.30;;;7.47;;
13202;SDS011;6666;51.626;7.530;2022-08-19T09:12:44;13.65;;;9.52;;
13202;SDS011;6666;51.626;7.530;2022-08-19T09:15:22;9.68;;;8.02;;
13202;SDS011;6666;51.626;7.530;2022-08-19T09:18:02;13.82;;;8.45;;
13202;SDS011;6666;51.626;7.530;2022-08-19T09:20:32;8.13;;;6.15;;
13202;SDS011;6666;51.626;7.530;2022-08-19T09:23:02;12.75;;;7.07;;
13202;SDS011;6666;51.626;7.530;2022-08-19T09:25:31;11.65;;;7.03;;
13202;SDS011;6666;51.626;7.530;2022-08-19T09:28:01;20.43;;;14.00;;
13202;SDS011;6666;51.626;7.530;2022-08-19T09:30:45;11.32;;;7.18;;
13202;SDS011;6666;51.626;7.530;2022-08-19T09:33:14;10.70;;;7.28;;
13202;SDS011;6666;51.626;7.530;2022-08-19T09:35:42;10.55;;;8.00;;
13202;SDS011;6666;51.626;7.530;2022-08-19T09:38:18;7.75;;;5.85;;
13202;SDS011;6666;51.626;7.530;2022-08-19T09:40:48;7.90;;;5.60;;
13202;SDS011;6666;51.626;7.530;2022-08-19T09:43:17;9.75;;;6.70;;
13202;SDS011;6666;51.626;7.530;2022-08-19T09:45:59;8.80;;;6.28;;
13202;SDS011;6666;51.626;7.530;2022-08-19T09:48:27;13.07;;;7.57;;
13202;SDS011;6666;51.626;7.530;2022-08-19T09:51:01;8.40;;;6.10;;
13202;SDS011;6666;51.626;7.530;2022-08-19T09:53:31;21.05;;;14.70;;
13202;SDS011;6666;51.626;7.530;2022-08-19T09:56:01;16.70;;;12.43;;
13202;SDS011;6666;51.626;7.530;2022-08-19T09:58:30;6.10;;;4.50;;
13202;SDS011;6666;51.626;7.530;2022-08-19T10:00:59;5.85;;;4.13;;
13202;SDS011;6666;51.626;7.530;2022-08-19T10:03:29;8.25;;;4.63;;
13202;SDS011;6666;51.626;7.530;2022-08-19T10:05:59;8.68;;;5.75;;
13202;SDS011;6666;51.626;7.530;2022-08-19T10:08:29;7.50;;;4.80;;
13202;SDS011;6666;51.626;7.530;2022-08-19T10:11:02;6.15;;;4.40;;
13202;SDS011;6666;51.626;7.530;2022-08-19T10:13:52;11.07;;;5.50;;
13202;SDS011;6666;51.626;7.530;2022-08-19T10:16:21;7.63;;;5.15;;
13202;SDS011;6666;51.626;7.530;2022-08-19T10:18:56;9.73;;;4.90;;
13202;SDS011;6666;51.626;7.530;2022-08-19T10:21:29;6.20;;;5.20;;
13202;SDS011;6666;51.626;7.530;2022-08-19T10:24:01;7.50;;;5.53;;
13202;SDS011;6666;51.626;7.530;2022-08-19T10:26:34;7.82;;;5.15;;
13202;SDS011;6666;51.626;7.530;2022-08-19T10:29:04;9.55;;;4.70;;
13202;SDS011;6666;51.626;7.530;2022-08-19T10:31:35;6.97;;;4.80;;
13202;SDS011;6666;51.626;7.530;2022-08-19T10:34:24;5.10;;;4.30;;
13202;SDS011;6666;51.626;7.530;2022-08-19T10:36:54;6.33;;;5.07;;
13202;SDS011;6666;51.626;7.530;2022-08-19T10:39:27;10.10;;;5.30;;
13202;SDS011;6666;51.626;7.530;2022-08-19T10:42:08;8.15;;;5.60;;
13202;SDS011;6666;51.626;7.530;2022-08-19T10:44:39;10.38;;;6.30;;
13202;SDS011;6666;51.626;7.530;2022-08-19T10:47:08;12.40;;;7.80;;
13202;SDS011;6666;51.626;7.530;2022-08-19T10:49:50;14.13;;;8.38;;
13202;SDS011;6666;51.626;7.530;2022-08-19T10:52:37;9.60;;;6.47;;
13202;SDS011;6666;51.626;7.530;2022-08-19T10:55:15;7.00;;;5.20;;
13202;SDS011;6666;51.626;7.530;2022-08-19T10:58:08;6.88;;;5.00;;
13202;SDS011;6666;51.626;7.530;2022-08-19T11:00:38;10.38;;;5.30;;
13202;SDS011;6666;51.626;7.530;2022-08-19T11:03:08;7.05;;;4.60;;
13202;SDS011;6666;51.626;7.530;2022-08-19T11:05:37;8.80;;;5.68;;
13202;SDS011;6666;51.626;7.530;2022-08-19T11:08:06;7.00;;;5.10;;
13202;SDS011;6666;51.626;7.530;2022-08-19T11:10:49;7.20;;;6.10;;
13202;SDS011;6666;51.626;7.530;2022-08-19T11:13:21;8.43;;;5.73;;
13202;SDS011;6666;51.626;7.530;2022-08-19T11:15:58;7.78;;;6.20;;
13202;SDS011;6666;51.626;7.530;2022-08-19T11:18:33;8.27;;;6.50;;
13202;SDS011;6666;51.626;7.530;2022-08-19T11:21:07;9.73;;;6.40;;
13202;SDS011;6666;51.626;7.530;2022-08-19T11:23:37;11.30;;;7.07;;
13202;SDS011;6666;51.626;7.530;2022-08-19T11:26:06;11.68;;;7.47;;
13202;SDS011;6666;51.626;7.530;2022-08-19T11:28:35;8.55;;;7.07;;
13202;SDS011;6666;51.626;7.530;2022-08-19T11:31:08;7.50;;;6.00;;
13202;SDS011;6666;51.626;7.530;2022-08-19T11:33:38;10.38;;;6.78;;
13202;SDS011;6666;51.626;7.530;2022-08-19T11:36:06;9.90;;;7.20;;
13202;SDS011;6666;51.626;7.530;2022-08-19T11:38:40;10.50;;;6.63;;
13202;SDS011;6666;51.626;7.530;2022-08-19T11:41:08;10.75;;;6.60;;
13202;SDS011;6666;51.626;7.530;2022-08-19T11:43:38;10.93;;;7.18;;
13202;SDS011;6666;51.626;7.530;2022-08-19T11:46:07;9.15;;;6.55;;
13202;SDS011;6666;51.626;7.530;2022-08-19T11:48:38;7.50;;;6.37;;
13202;SDS011;6666;51.626;7.530;2022-08-19T11:51:08;7.45;;;6.10;;
13202;SDS011;6666;51.626;7.530;2022-08-19T11:53:39;9.02;;;5.90;;
13202;SDS011;6666;51.626;7.530;2022-08-19T11:56:08;8.25;;;6.05;;
13202;SDS011;6666;51.626;7.530;2022-08-19T11:58:39;8.55;;;5.22;;
13202;SDS011;6666;51.626;7.530;2022-08-19T12:01:08;8.80;;;6.10;;
13202;SDS011;6666;51.626;7.530;2022-08-19T12:03:38;8.40;;;5.07;;
13202;SDS011;6666;51.626;7.530;2022-08-19T12:06:08;6.07;;;4.70;;
13202;SDS011;6666;51.626;7.530;2022-08-19T12:08:39;10.95;;;5.60;;
13202;SDS011;6666;51.626;7.530;2022-08-19T12:11:09;6.50;;;4.75;;
13202;SDS011;6666;51.626;7.530;2022-08-19T12:13:39;9.20;;;6.00;;
13202;SDS011;6666;51.626;7.530;2022-08-19T12:16:11;5.70;;;4.90;;
13202;SDS011;6666;51.626;7.530;2022-08-19T12:18:42;11.10;;;7.73;;
13202;SDS011;6666;51.626;7.530;2022-08-19T12:21:12;6.45;;;4.65;;
13202;SDS011;6666;51.626;7.530;2022-08-19T12:23:41;9.00;;;5.50;;
13202;SDS011;6666;51.626;7.530;2022-08-19T12:26:11;8.85;;;6.10;;
13202;SDS011;6666;51.626;7.530;2022-08-19T12:28:41;11.57;;;8.98;;
13202;SDS011;6666;51.626;7.530;2022-08-19T12:31:10;9.20;;;6.45;;
13202;SDS011;6666;51.626;7.530;2022-08-19T12:33:38;9.05;;;7.15;;
13202;SDS011;6666;51.626;7.530;2022-08-19T12:36:09;8.50;;;6.43;;
13202;SDS011;6666;51.626;7.530;2022-08-19T12:38:39;7.93;;;6.60;;
13202;SDS011;6666;51.626;7.530;2022-08-19T12:41:09;7.43;;;5.55;;
13202;SDS011;6666;51.626;7.530;2022-08-19T12:43:38;7.93;;;5.20;;
13202;SDS011;6666;51.626;7.530;2022-08-19T12:46:09;6.70;;;4.80;;
13202;SDS011;6666;51.626;7.530;2022-08-19T12:48:38;7.13;;;4.95;;
13202;SDS011;6666;51.626;7.530;2022-08-19T12:51:08;5.50;;;4.90;;
13202;SDS011;6666;51.626;7.530;2022-08-19T12:53:38;5.85;;;4.60;;
13202;SDS011;6666;51.626;7.530;2022-08-19T12:56:07;7.30;;;4.90;;
13202;SDS011;6666;51.626;7.530;2022-08-19T12:58:38;8.38;;;5.72;;
13202;SDS011;6666;51.626;7.530;2022-08-19T13:01:16;7.60;;;5.60;;
13202;SDS011;6666;51.626;7.530;2022-08-19T13:03:49;10.38;;;6.78;;
13202;SDS011;6666;51.626;7.530;2022-08-19T13:06:20;9.20;;;5.97;;
13202;SDS011;6666;51.626;7.530;2022-08-19T13:08:49;9.57;;;7.72;;
13202;SDS011;6666;51.626;7.530;2022-08-19T13:11:23;10.40;;;7.68;;
13202;SDS011;6666;51.626;7.530;2022-08-19T13:13:52;8.50;;;6.80;;
13202;SDS011;6666;51.626;7.530;2022-08-19T13:16:23;10.60;;;6.90;;
13202;SDS011;6666;51.626;7.530;2022-08-19T13:18:52;8.23;;;6.30;;
13202;SDS011;6666;51.626;7.530;2022-08-19T13:21:22;7.60;;;5.78;;
13202;SDS011;6666;51.626;7.530;2022-08-19T13:23:52;7.47;;;5.60;;
13202;SDS011;6666;51.626;7.530;2022-08-19T13:26:21;6.70;;;5.40;;
13202;SDS011;6666;51.626;7.530;2022-08-19T13:28:49;24.85;;;17.23;;
13202;SDS011;6666;51.626;7.530;2022-08-19T13:31:38;7.63;;;5.25;;
13202;SDS011;6666;51.626;7.530;2022-08-19T13:34:28;9.82;;;6.60;;
13202;SDS011;6666;51.626;7.530;2022-08-19T13:36:59;11.80;;;7.15;;
13202;SDS011;6666;51.626;7.530;2022-08-19T13:39:30;6.60;;;5.07;;
13202;SDS011;6666;51.626;7.530;2022-08-19T13:41:59;8.57;;;4.88;;
13202;SDS011;6666;51.626;7.530;2022-08-19T13:44:29;9.65;;;6.10;;
13202;SDS011;6666;51.626;7.530;2022-08-19T13:47:01;6.72;;;5.70;;
13202;SDS011;6666;51.626;7.530;2022-08-19T13:49:33;7.35;;;5.22;;
13202;SDS011;6666;51.626;7.530;2022-08-19T13:52:02;8.40;;;5.05;;
13202;SDS011;6666;51.626;7.530;2022-08-19T13:54:31;6.68;;;5.22;;
13202;SDS011;6666;51.626;7.530;2022-08-19T13:57:00;8.20;;;5.40;;
13202;SDS011;6666;51.626;7.530;2022-08-19T13:59:28;6.50;;;5.40;;
13202;SDS011;6666;51.626;7.530;2022-08-19T14:01:57;7.03;;;5.75;;
13202;SDS011;6666;51.626;7.530;2022-08-19T14:04:28;7.88;;;6.50;;
13202;SDS011;6666;51.626;7.530;2022-08-19T14:06:56;9.38;;;6.20;;
13202;SDS011;6666;51.626;7.530;2022-08-19T14:09:25;13.55;;;6.57;;
13202;SDS011;6666;51.626;7.530;2022-08-19T14:11:53;12.07;;;5.88;;
13202;SDS011;6666;51.626;7.530;2022-08-19T14:14:21;8.48;;;6.60;;
13202;SDS011;6666;51.626;7.530;2022-08-19T14:16:50;9.18;;;6.05;;
13202;SDS011;6666;51.626;7.530;2022-08-19T14:19:19;7.43;;;5.93;;
13202;SDS011;6666;51.626;7.530;2022-08-19T14:21:50;9.70;;;5.40;;
13202;SDS011;6666;51.626;7.530;2022-08-19T14:24:18;10.70;;;6.45;;
13202;SDS011;6666;51.626;7.530;2022-08-19T14:26:46;8.93;;;7.03;;
13202;SDS011;6666;51.626;7.530;2022-08-19T14:29:15;9.95;;;7.40;;
13202;SDS011;6666;51.626;7.530;2022-08-19T14:31:44;10.30;;;6.43;;
13202;SDS011;6666;51.626;7.530;2022-08-19T14:34:12;6.22;;;5.15;;
13202;SDS011;6666;51.626;7.530;2022-08-19T14:36:41;7.45;;;4.90;;
13202;SDS011;6666;51.626;7.530;2022-08-19T14:39:12;8.55;;;5.10;;
13202;SDS011;6666;51.626;7.530;2022-08-19T14:41:41;6.00;;;4.90;;
13202;SDS011;6666;51.626;7.530;2022-08-19T14:44:09;7.70;;;4.60;;
13202;SDS011;6666;51.626;7.530;2022-08-19T14:46:39;6.75;;;5.18;;
13202;SDS011;6666;51.626;7.530;2022-08-19T14:49:14;5.38;;;4.40;;
13202;SDS011;6666;51.626;7.530;2022-08-19T14:51:44;5.40;;;3.92;;
13202;SDS011;6666;51.626;7.530;2022-08-19T14:54:15;7.80;;;4.53;;
13202;SDS011;6666;51.626;7.530;2022-08-19T14:56:44;4.95;;;4.45;;
13202;SDS011;6666;51.626;7.530;2022-08-19T14:59:12;10.38;;;8.05;;
13202;SDS011;6666;51.626;7.530;2022-08-19T15:01:41;12.52;;;8.30;;
13202;SDS011;6666;51.626;7.530;2022-08-19T15:04:10;13.82;;;10.85;;
13202;SDS011;6666;51.626;7.530;2022-08-19T15:06:38;4.45;;;3.55;;
13202;SDS011;6666;51.626;7.530;2022-08-19T15:09:08;4.03;;;3.55;;
13202;SDS011;6666;51.626;7.530;2022-08-19T15:11:38;7.95;;;4.03;;
13202;SDS011;6666;51.626;7.530;2022-08-19T15:14:07;4.80;;;3.83;;
13202;SDS011;6666;51.626;7.530;2022-08-19T15:16:35;7.40;;;6.10;;
13202;SDS011;6666;51.626;7.530;2022-08-19T15:19:05;6.00;;;4.55;;
13202;SDS011;6666;51.626;7.530;2022-08-19T15:21:34;7.75;;;5.72;;